Time;durP1;ratioP1;P1;durP2;ratioP2;P2;SDS_P1;SDS_P2;PMS_P1;PMS_P2;Temp;Humidity;BMP_temperature;BMP_pressure;BME280_temperature;BME280_humidity;BME280_pressure;Samples;Min_cycle;Max_cycle;Signal;HPM_P1;HPM_P2
2022/06/12 00:02:07;;;;;;;5.95;2.10;;;14.90;99.90;;;;;;5046841;28;20639;-79
2022/06/12 00:04:33;;;;;;;9.15;2.30;;;14.90;99.90;;;;;;5029803;28;20131;-79
2022/06/12 00:06:58;;;;;;;9.40;2.83;;;14.90;99.90;;;;;;5045487;28;20047;-79
2022/06/12 00:09:24;;;;;;;10.95;2.60;;;14.80;99.90;;;;;;5031766;28;20115;-79
2022/06/12 00:11:49;;;;;;;8.98;2.40;;;14.80;99.90;;;;;;5028236;28;20048;-80
2022/06/12 00:14:15;;;;;;;7.55;2.17;;;14.70;99.90;;;;;;5048256;28;20036;-79
2022/06/12 00:16:45;;;;;;;11.20;2.40;;;14.60;99.90;;;;;;5046276;28;20144;-79
2022/06/12 00:19:11;;;;;;;6.85;2.17;;;14.60;99.90;;;;;;5048149;28;20040;-78
2022/06/12 00:21:37;;;;;;;9.07;2.47;;;14.50;99.90;;;;;;5046925;28;20033;-78
2022/06/12 00:24:16;;;;;;;7.78;2.35;;;14.50;99.90;;;;;;5046850;28;20502;-78
2022/06/12 00:26:48;;;;;;;8.48;2.40;;;14.50;99.90;;;;;;5044107;28;20041;-79
2022/06/12 00:29:18;;;;;;;9.85;2.00;;;14.40;99.90;;;;;;5046932;28;20104;-79
2022/06/12 00:31:47;;;;;;;6.03;2.22;;;14.30;99.90;;;;;;5047710;28;20045;-79
2022/06/12 00:34:15;;;;;;;6.35;2.17;;;14.30;99.90;;;;;;5047899;28;20498;-79
2022/06/12 00:36:41;;;;;;;8.75;2.33;;;14.30;99.90;;;;;;5045411;28;20152;-79
2022/06/12 00:39:08;;;;;;;7.95;2.17;;;14.30;99.90;;;;;;5046439;28;20029;-79
2022/06/12 00:41:34;;;;;;;8.10;1.90;;;14.20;99.90;;;;;;5046729;28;20056;-80
2022/06/12 00:43:59;;;;;;;8.68;2.15;;;14.20;99.90;;;;;;5046831;28;20067;-80
2022/06/12 00:46:45;;;;;;;7.18;2.17;;;14.20;99.90;;;;;;5046365;28;20037;-79
2022/06/12 00:49:19;;;;;;;10.00;1.98;;;14.20;99.90;;;;;;5045510;28;20495;-78
2022/06/12 00:51:47;;;;;;;;;;;14.10;99.90;;;;;;5042222;28;20543;-80
2022/06/12 00:54:13;;;;;;;6.85;2.10;;;14.20;99.90;;;;;;5046743;28;20017;-79
2022/06/12 00:56:47;;;;;;;8.85;2.60;;;14.10;99.90;;;;;;5044643;28;20496;-79
2022/06/12 00:59:22;;;;;;;4.82;1.90;;;14.10;99.90;;;;;;5043346;28;20087;-79
2022/06/12 01:01:51;;;;;;;7.88;2.05;;;14.00;99.90;;;;;;5044278;28;20037;-79
2022/06/12 01:07:06;;;;;;;8.88;1.90;;;14.00;99.90;;;;;;5045462;28;20506;-79
2022/06/12 01:09:38;;;;;;;9.13;2.10;;;14.00;99.90;;;;;;5046484;28;20052;-79
2022/06/12 01:12:07;;;;;;;5.88;1.98;;;13.90;99.90;;;;;;5045377;28;20053;-79
2022/06/12 01:14:36;;;;;;;7.18;2.00;;;13.90;99.90;;;;;;5044845;28;20048;-78
2022/06/12 01:17:04;;;;;;;6.88;1.83;;;13.90;99.90;;;;;;5044797;28;20499;-78
2022/06/12 01:19:34;;;;;;;7.18;1.85;;;13.90;99.90;;;;;;5045482;28;20490;-79
2022/06/12 01:22:19;;;;;;;7.45;2.03;;;13.90;99.90;;;;;;5047328;28;20043;-79
2022/06/12 01:25:13;;;;;;;7.45;1.92;;;13.80;99.90;;;;;;5043697;28;20090;-78
2022/06/12 01:28:15;;;;;;;7.80;2.20;;;13.70;99.90;;;;;;5044740;28;20036;-79
2022/06/12 01:31:06;;;;;;;6.40;2.03;;;13.80;99.90;;;;;;5028562;28;20498;-79
2022/06/12 01:33:37;;;;;;;7.82;2.05;;;13.70;99.90;;;;;;5029303;28;20041;-79
2022/06/12 01:36:18;;;;;;;8.90;2.13;;;13.70;99.90;;;;;;5026966;28;20083;-79
2022/06/12 01:39:02;;;;;;;8.95;2.20;;;13.60;99.90;;;;;;5044550;28;20738;-79
2022/06/12 01:41:52;;;;;;;7.80;2.25;;;13.60;99.90;;;;;;5043224;28;20068;-79
2022/06/12 01:44:44;;;;;;;5.72;2.08;;;13.60;99.90;;;;;;5043325;28;20063;-79
2022/06/12 01:47:15;;;;;;;5.57;2.20;;;13.60;99.90;;;;;;5044177;28;20552;-78
2022/06/12 01:49:44;;;;;;;9.48;2.50;;;13.50;99.90;;;;;;5045104;28;20028;-79
2022/06/12 01:52:38;;;;;;;7.47;1.90;;;13.40;99.90;;;;;;5045593;28;20033;-80
2022/06/12 01:55:31;;;;;;;5.53;1.92;;;13.40;99.90;;;;;;5026581;28;20037;-80
2022/06/12 01:58:11;;;;;;;8.52;2.40;;;13.40;99.90;;;;;;5044670;28;20032;-79
2022/06/12 02:00:41;;;;;;;8.43;2.97;;;13.40;99.90;;;;;;5041129;28;20041;-79
2022/06/12 02:03:13;;;;;;;8.63;2.15;;;13.30;99.90;;;;;;5045207;28;20037;-79
2022/06/12 02:05:48;;;;;;;7.15;2.40;;;13.30;99.90;;;;;;5026291;28;20047;-80
2022/06/12 02:08:30;;;;;;;8.05;2.42;;;13.30;99.90;;;;;;5040628;28;20040;-78
2022/06/12 02:14:12;;;;;;;7.43;2.20;;;13.30;99.90;;;;;;5042785;28;20045;-79
2022/06/12 02:16:43;;;;;;;7.75;2.45;;;13.30;99.90;;;;;;5043919;28;20183;-79
2022/06/12 02:19:19;;;;;;;8.05;2.20;;;13.30;99.90;;;;;;5044224;28;20185;-80
2022/06/12 02:21:52;;;;;;;6.88;2.30;;;13.30;99.90;;;;;;5043544;28;20044;-80
2022/06/12 02:24:26;;;;;;;6.18;2.40;;;13.30;99.90;;;;;;5028280;28;20288;-80
2022/06/12 02:27:03;;;;;;;8.13;2.40;;;13.30;99.90;;;;;;5044151;28;20033;-79
2022/06/12 02:29:42;;;;;;;8.75;2.47;;;13.30;99.90;;;;;;5044577;28;20036;-79
2022/06/12 02:32:21;;;;;;;6.32;2.13;;;13.30;99.90;;;;;;5043919;28;20033;-79
2022/06/12 02:35:01;;;;;;;6.07;2.08;;;13.30;99.90;;;;;;5041729;28;20528;-80
2022/06/12 02:37:36;;;;;;;10.68;2.40;;;13.30;99.90;;;;;;5044840;28;20463;-78
2022/06/12 02:40:12;;;;;;;9.65;2.20;;;13.20;99.90;;;;;;5045043;28;20029;-79
2022/06/12 02:42:43;;;;;;;7.07;2.40;;;13.30;99.90;;;;;;5028834;28;20120;-79
2022/06/12 02:45:18;;;;;;;10.48;2.72;;;13.30;99.90;;;;;;5043337;28;21504;-78
2022/06/12 02:47:45;;;;;;;8.38;2.78;;;13.30;99.90;;;;;;5044215;28;20048;-79
2022/06/12 02:50:13;;;;;;;9.40;2.58;;;13.20;99.90;;;;;;5045140;28;20040;-79
2022/06/12 02:53:02;;;;;;;7.72;2.40;;;13.20;99.90;;;;;;5028198;28;20041;-79
2022/06/12 02:55:34;;;;;;;7.45;2.63;;;13.20;99.90;;;;;;5024189;28;20040;-79
2022/06/12 02:58:16;;;;;;;7.00;2.15;;;13.20;99.90;;;;;;5046917;28;20090;-78
2022/06/12 03:00:52;;;;;;;10.55;2.85;;;13.20;99.90;;;;;;5048077;28;20048;-79
2022/06/12 03:03:55;;;;;;;9.52;2.47;;;13.20;99.90;;;;;;5049162;28;20033;-79
2022/06/12 03:06:26;;;;;;;9.68;2.97;;;13.10;99.90;;;;;;5047541;28;20047;-80
2022/06/12 03:08:52;;;;;;;5.97;2.10;;;13.20;99.90;;;;;;5046135;28;20040;-80
2022/06/12 03:11:25;;;;;;;8.70;2.55;;;13.00;99.90;;;;;;5048416;28;20045;-79
2022/06/12 03:13:53;;;;;;;9.65;2.50;;;13.00;99.90;;;;;;5046303;28;20051;-79
2022/06/12 03:16:46;;;;;;;8.52;2.38;;;13.00;99.90;;;;;;5047648;28;20383;-80
2022/06/12 03:19:48;;;;;;;8.27;2.40;;;13.00;99.90;;;;;;5045575;28;20053;-78
2022/06/12 03:22:43;;;;;;;10.38;2.80;;;13.00;99.90;;;;;;5036876;28;20718;-77
2022/06/12 03:25:17;;;;;;;;;;;13.10;99.90;;;;;;5045175;28;20060;-79
2022/06/12 03:28:00;;;;;;;9.02;2.80;;;13.00;99.90;;;;;;5047886;28;20298;-79
2022/06/12 03:30:49;;;;;;;8.83;2.80;;;13.00;99.90;;;;;;5047026;28;20037;-79
2022/06/12 03:33:39;;;;;;;13.38;2.63;;;13.00;99.90;;;;;;5048072;28;20318;-79
2022/06/12 03:36:20;;;;;;;8.23;2.50;;;13.00;99.90;;;;;;5046134;28;20040;-79
2022/06/12 03:39:05;;;;;;;8.73;2.70;;;13.00;99.90;;;;;;5046319;28;20083;-78
2022/06/12 03:41:51;;;;;;;10.80;2.58;;;12.90;99.90;;;;;;5061278;28;20037;-78
2022/06/12 03:44:46;;;;;;;6.43;2.50;;;12.90;99.90;;;;;;5030045;28;20036;-79
2022/06/12 03:47:38;;;;;;;;;;;12.90;99.90;;;;;;5030733;28;20047;-78
2022/06/12 03:50:26;;;;;;;8.90;2.63;;;12.90;99.90;;;;;;5020017;28;19920;-79
2022/06/12 03:53:04;;;;;;;7.10;2.38;;;13.00;99.90;;;;;;5047586;28;20044;-79
2022/06/12 03:58:37;;;;;;;7.43;2.50;;;13.00;99.90;;;;;;5062486;28;20044;-79
2022/06/12 04:01:03;;;;;;;7.00;2.22;;;13.10;99.90;;;;;;5044012;28;20041;-79
2022/06/12 04:03:37;;;;;;;8.20;2.20;;;13.10;99.90;;;;;;5047947;28;20471;-79
2022/06/12 04:06:08;;;;;;;5.53;1.92;;;13.10;99.90;;;;;;5045609;28;21677;-78
2022/06/12 04:08:38;;;;;;;9.20;2.20;;;13.20;99.90;;;;;;5047108;28;20029;-78
2022/06/12 04:11:07;;;;;;;8.07;2.15;;;13.20;99.90;;;;;;5046181;28;20056;-79
2022/06/12 04:13:37;;;;;;;8.73;2.20;;;13.30;99.90;;;;;;5047776;28;20098;-79
2022/06/12 04:16:12;;;;;;;7.18;2.47;;;13.40;99.90;;;;;;5046275;28;20092;-79
2022/06/12 04:18:38;;;;;;;8.32;2.05;;;13.50;99.90;;;;;;5046855;28;20395;-79
2022/06/12 04:21:11;;;;;;;8.10;2.00;;;13.60;99.90;;;;;;5046319;28;20036;-78
2022/06/12 04:24:09;;;;;;;10.13;2.72;;;13.60;99.90;;;;;;5042313;28;20044;-79
2022/06/12 04:26:48;;;;;;;6.00;1.88;;;13.70;99.90;;;;;;5038169;28;20049;-80
2022/06/12 04:29:13;;;;;;;7.45;2.10;;;13.80;99.90;;;;;;5046177;28;20037;-79
2022/06/12 04:31:43;;;;;;;9.95;2.15;;;13.80;99.90;;;;;;5046371;28;20753;-79
2022/06/12 04:34:25;;;;;;;7.28;1.92;;;13.90;99.90;;;;;;5047440;28;20514;-79
2022/06/12 04:36:58;;;;;;;10.00;2.50;;;14.00;99.90;;;;;;5044711;28;20437;-79
2022/06/12 04:39:28;;;;;;;6.38;2.00;;;14.10;99.90;;;;;;5046597;28;20033;-79
2022/06/12 04:41:55;;;;;;;7.55;1.90;;;14.10;99.90;;;;;;5044809;28;20044;-79
2022/06/12 04:44:21;;;;;;;10.32;2.28;;;14.10;99.90;;;;;;5043412;28;20041;-78
2022/06/12 04:46:48;;;;;;;5.00;1.88;;;14.20;99.90;;;;;;5044951;28;20039;-79
2022/06/12 04:49:20;;;;;;;9.50;2.03;;;14.20;99.90;;;;;;5046963;28;20041;-79
2022/06/12 04:51:47;;;;;;;11.02;2.17;;;14.10;99.90;;;;;;5045821;28;20037;-79
2022/06/12 04:54:13;;;;;;;6.35;2.05;;;14.20;99.90;;;;;;5048321;28;20662;-80
2022/06/12 04:56:38;;;;;;;7.32;2.17;;;14.20;99.90;;;;;;5029285;28;20699;-79
2022/06/12 04:59:06;;;;;;;7.72;2.33;;;14.30;99.90;;;;;;5046842;28;20032;-80
2022/06/12 05:01:33;;;;;;;12.40;3.05;;;14.30;99.90;;;;;;5031297;28;20646;-79
2022/06/12 05:04:00;;;;;;;9.48;2.30;;;14.40;99.90;;;;;;5030824;28;20047;-79
2022/06/12 05:06:26;;;;;;;7.72;2.42;;;14.40;99.90;;;;;;5045272;28;20521;-79
2022/06/12 05:08:52;;;;;;;12.20;2.72;;;14.50;99.90;;;;;;5046326;28;20076;-79
2022/06/12 05:11:18;;;;;;;13.65;2.63;;;14.60;99.90;;;;;;5052393;28;20059;-79
2022/06/12 05:13:44;;;;;;;12.00;2.38;;;14.60;99.90;;;;;;5048328;28;20029;-79
2022/06/12 05:16:24;;;;;;;6.97;2.00;;;14.70;99.90;;;;;;5053350;28;20041;-80
2022/06/12 05:18:50;;;;;;;7.38;2.10;;;14.80;99.90;;;;;;5033291;28;20041;-80
2022/06/12 05:21:15;;;;;;;7.45;2.65;;;14.80;99.90;;;;;;5052369;28;20410;-81
2022/06/12 05:23:41;;;;;;;10.90;2.58;;;14.90;99.90;;;;;;5052358;28;20086;-80
2022/06/12 05:26:06;;;;;;;11.15;2.90;;;15.00;99.90;;;;;;5051680;28;20041;-80
2022/06/12 05:28:32;;;;;;;9.13;2.55;;;15.10;99.90;;;;;;5053055;28;20041;-79
2022/06/12 05:30:58;;;;;;;10.10;2.60;;;15.10;99.90;;;;;;5050990;28;20044;-81
2022/06/12 05:33:23;;;;;;;13.18;2.80;;;15.20;99.90;;;;;;5033850;28;20144;-80
2022/06/12 05:35:49;;;;;;;10.30;2.58;;;15.30;99.90;;;;;;5042331;28;20045;-80
2022/06/12 05:38:14;;;;;;;10.10;2.70;;;15.30;99.90;;;;;;5051914;28;20568;-80
2022/06/12 05:40:40;;;;;;;13.07;3.25;;;15.50;99.90;;;;;;5050057;28;20033;-79
2022/06/12 05:43:06;;;;;;;12.13;3.10;;;15.60;99.90;;;;;;5048399;28;20037;-80
2022/06/12 05:45:33;;;;;;;11.85;3.10;;;15.70;99.90;;;;;;5054282;28;20068;-79
2022/06/12 05:48:03;;;;;;;12.38;2.65;;;15.80;99.90;;;;;;5051987;28;20040;-79
2022/06/12 05:50:32;;;;;;;17.73;3.10;;;15.90;99.90;;;;;;5050562;28;20557;-80
2022/06/12 05:52:58;;;;;;;11.90;3.20;;;16.00;99.90;;;;;;5046508;28;20025;-79
2022/06/12 05:55:23;;;;;;;11.70;3.80;;;16.10;99.90;;;;;;5048808;28;20045;-80
2022/06/12 05:57:49;;;;;;;12.38;3.47;;;16.20;99.90;;;;;;5032966;28;20132;-81
2022/06/12 06:00:19;;;;;;;13.60;3.13;;;16.30;99.90;;;;;;5048707;28;20100;-80
2022/06/12 06:02:45;;;;;;;12.57;3.00;;;16.40;99.90;;;;;;5042684;28;20041;-80
2022/06/12 06:05:11;;;;;;;10.93;3.08;;;16.50;99.90;;;;;;5051219;28;20079;-80
2022/06/12 06:07:38;;;;;;;14.38;3.58;;;16.50;99.90;;;;;;5049701;28;20055;-80
2022/06/12 06:10:07;;;;;;;12.55;3.53;;;16.50;99.90;;;;;;5057736;28;20033;-80
2022/06/12 06:12:33;;;;;;;12.45;3.63;;;16.50;99.90;;;;;;5033641;28;20033;-81
2022/06/12 06:14:59;;;;;;;12.85;3.53;;;16.60;99.90;;;;;;5050976;28;20055;-79
2022/06/12 06:17:25;;;;;;;14.98;3.90;;;16.70;99.90;;;;;;5050657;28;20068;-80
2022/06/12 06:19:50;;;;;;;16.52;4.13;;;16.80;99.90;;;;;;5048556;28;20048;-80
2022/06/12 06:22:18;;;;;;;14.38;3.90;;;16.90;99.90;;;;;;5050730;28;20033;-80
2022/06/12 06:24:44;;;;;;;16.30;3.78;;;17.00;99.90;;;;;;5040204;28;20042;-79
2022/06/12 06:27:11;;;;;;;15.10;3.65;;;17.20;99.90;;;;;;5053704;28;20087;-79
2022/06/12 06:29:37;;;;;;;12.93;3.30;;;17.20;99.90;;;;;;5033300;28;20041;-81
2022/06/12 06:32:05;;;;;;;21.67;4.90;;;17.40;99.90;;;;;;5050746;28;20107;-81
2022/06/12 06:34:31;;;;;;;14.93;4.32;;;17.40;99.90;;;;;;5053542;28;20044;-80
2022/06/12 06:36:56;;;;;;;14.18;4.57;;;17.40;99.90;;;;;;5053503;28;20073;-80
2022/06/12 06:39:22;;;;;;;22.67;4.28;;;17.50;99.90;;;;;;5036362;28;20151;-79
2022/06/12 06:41:47;;;;;;;16.92;4.38;;;17.60;99.90;;;;;;5055957;28;20063;-81
2022/06/12 06:46:57;;;;;;;16.27;4.38;;;17.80;99.90;;;;;;5051088;28;20196;-80
2022/06/12 06:49:22;;;;;;;18.02;4.72;;;17.90;99.90;;;;;;5053517;28;20068;-80
2022/06/12 06:51:49;;;;;;;21.10;4.97;;;17.90;99.90;;;;;;5060323;28;20057;-80
2022/06/12 06:54:15;;;;;;;17.65;4.55;;;18.00;99.90;;;;;;5050909;28;20111;-80
2022/06/12 06:56:41;;;;;;;17.17;4.82;;;18.10;99.90;;;;;;5056211;28;20468;-80
2022/06/12 06:59:07;;;;;;;14.25;4.57;;;18.20;99.90;;;;;;5055225;28;20124;-80
2022/06/12 07:01:34;;;;;;;18.88;4.68;;;18.40;99.90;;;;;;5051628;28;20128;-81
2022/06/12 07:04:00;;;;;;;16.33;3.97;;;18.50;99.90;;;;;;5052432;28;20065;-80
2022/06/12 07:06:26;;;;;;;20.77;5.13;;;18.60;99.90;;;;;;5053217;28;20075;-80
2022/06/12 07:08:52;;;;;;;16.95;4.47;;;18.70;99.90;;;;;;5050515;28;20064;-80
2022/06/12 07:11:18;;;;;;;18.17;5.10;;;18.70;99.90;;;;;;5052489;28;20482;-80
2022/06/12 07:13:44;;;;;;;14.82;4.40;;;18.90;99.90;;;;;;5053847;28;20087;-80
2022/06/12 07:16:10;;;;;;;19.42;4.60;;;18.90;99.90;;;;;;5057025;28;20498;-80
2022/06/12 07:18:35;;;;;;;16.58;4.50;;;19.00;99.90;;;;;;5051864;28;20032;-79
2022/06/12 07:21:02;;;;;;;22.45;4.38;;;19.00;99.90;;;;;;5053646;28;20455;-80
2022/06/12 07:23:28;;;;;;;18.23;4.75;;;19.00;99.90;;;;;;5035018;28;20118;-79
2022/06/12 07:25:58;;;;;;;13.32;3.80;;;19.10;99.90;;;;;;5049424;28;20166;-80
2022/06/12 07:28:25;;;;;;;16.80;4.22;;;19.20;99.90;;;;;;5051661;28;20041;-79
2022/06/12 07:30:51;;;;;;;14.00;3.97;;;19.30;99.90;;;;;;5041030;28;20503;-80
2022/06/12 07:33:18;;;;;;;16.50;3.97;;;19.30;99.90;;;;;;5060707;28;20041;-80
2022/06/12 07:35:45;;;;;;;13.77;3.60;;;19.50;99.90;;;;;;5031896;28;20037;-78
2022/06/12 07:38:16;;;;;;;12.38;3.20;;;19.70;99.90;;;;;;5046369;28;20044;-79
2022/06/12 07:40:47;;;;;;;16.33;3.42;;;19.90;99.90;;;;;;5053085;28;20102;-79
2022/06/12 07:43:12;;;;;;;16.42;3.97;;;19.90;99.90;;;;;;5051278;28;20060;-80
2022/06/12 07:45:40;;;;;;;16.95;4.00;;;19.90;99.90;;;;;;5053124;28;20045;-79
2022/06/12 07:48:06;;;;;;;14.30;4.00;;;19.90;99.90;;;;;;5038423;28;20095;-80
2022/06/12 07:50:32;;;;;;;12.68;3.80;;;19.90;99.90;;;;;;5050025;28;20438;-80
2022/06/12 07:52:58;;;;;;;14.52;3.70;;;19.90;99.90;;;;;;5053477;28;20048;-79
2022/06/12 07:55:25;;;;;;;12.57;3.42;;;20.00;99.90;;;;;;5043807;28;20549;-79
2022/06/12 07:57:52;;;;;;;12.82;3.47;;;20.20;99.90;;;;;;5046202;28;20045;-79
2022/06/12 08:00:18;;;;;;;13.15;3.33;;;20.30;99.90;;;;;;5065572;28;20048;-79
2022/06/12 08:02:46;;;;;;;16.38;3.53;;;20.50;99.90;;;;;;5015953;28;20411;-79
2022/06/12 08:05:13;;;;;;;14.73;3.55;;;20.70;99.90;;;;;;5041368;28;20514;-79
2022/06/12 08:07:38;;;;;;;12.48;3.58;;;20.90;99.90;;;;;;5052562;28;20498;-79
2022/06/12 08:10:05;;;;;;;16.10;3.63;;;20.80;99.90;;;;;;5052096;28;20037;-79
2022/06/12 08:12:33;;;;;;;14.80;4.07;;;20.90;99.90;;;;;;5051887;28;20111;-79
2022/06/12 08:14:58;;;;;;;13.13;3.20;;;21.20;99.90;;;;;;5052624;28;20033;-78
2022/06/12 08:17:24;;;;;;;13.52;3.58;;;21.30;99.90;;;;;;5035585;28;20040;-79
2022/06/12 08:22:34;;;;;;;16.70;3.65;;;21.20;99.90;;;;;;5052176;28;20045;-78
2022/06/12 08:25:00;;;;;;;12.32;3.17;;;21.10;99.90;;;;;;5048234;28;20029;-78
2022/06/12 08:27:25;;;;;;;11.55;3.35;;;21.10;99.90;;;;;;5052139;28;20159;-79
2022/06/12 08:29:51;;;;;;;11.63;3.15;;;21.10;99.90;;;;;;5051932;28;20044;-78
2022/06/12 08:32:21;;;;;;;19.63;4.10;;;21.00;99.90;;;;;;5050573;28;20507;-78
2022/06/12 08:34:51;;;;;;;13.20;3.40;;;20.90;99.90;;;;;;5046847;28;20511;-78
2022/06/12 08:37:21;;;;;;;12.38;3.30;;;21.10;99.90;;;;;;5053404;28;20499;-79
2022/06/12 08:39:47;;;;;;;12.45;3.42;;;21.40;99.90;;;;;;5052071;28;20052;-80
2022/06/12 08:42:24;;;;;;;13.75;3.50;;;21.60;99.90;;;;;;5052879;28;20467;-78
2022/06/12 08:45:04;;;;;;;17.13;3.42;;;21.40;99.90;;;;;;5051501;28;20041;-77
2022/06/12 08:48:08;;;;;;;12.68;3.58;;;21.20;99.90;;;;;;5052332;28;20037;-79
2022/06/12 08:50:46;;;;;;;16.80;4.90;;;21.00;99.90;;;;;;5029154;28;20127;-79
2022/06/12 08:53:27;;;;;;;16.02;3.53;;;20.90;99.90;;;;;;5052602;28;20040;-79
2022/06/12 08:55:56;;;;;;;13.93;3.47;;;20.60;99.90;;;;;;5035506;28;20059;-78
2022/06/12 08:58:30;;;;;;;15.82;3.90;;;20.20;99.90;;;;;;5052858;28;20036;-78
2022/06/12 09:00:58;;;;;;;12.85;3.30;;;20.00;99.90;;;;;;5052468;28;20059;-79
2022/06/12 09:03:29;;;;;;;13.57;3.40;;;19.90;99.90;;;;;;5035419;28;20049;-79
2022/06/12 09:06:35;;;;;;;15.85;3.50;;;20.10;99.90;;;;;;5034542;28;20083;-79
2022/06/12 09:09:10;;;;;;;11.45;3.35;;;20.30;99.90;;;;;;5030312;28;20049;-78
2022/06/12 09:11:46;;;;;;;15.82;3.67;;;20.50;99.90;;;;;;5035392;28;20044;-78
2022/06/12 09:14:22;;;;;;;14.52;4.00;;;20.90;99.90;;;;;;5050414;28;20064;-78
2022/06/12 09:17:33;;;;;;;11.85;3.40;;;21.30;99.90;;;;;;5052114;28;20044;-78
2022/06/12 09:20:25;;;;;;;11.35;3.40;;;21.70;99.90;;;;;;5031563;28;20055;-79
2022/06/12 09:23:19;;;;;;;10.27;2.88;;;22.00;99.90;;;;;;5040360;28;20095;-78
2022/06/12 09:26:00;;;;;;;11.35;3.28;;;22.30;99.90;;;;;;5050415;28;20068;-78
2022/06/12 09:28:50;;;;;;;9.65;2.80;;;22.20;99.90;;;;;;5052229;28;20045;-79
2022/06/12 09:31:24;;;;;;;12.63;3.25;;;21.80;99.90;;;;;;5051761;28;20037;-78
2022/06/12 09:34:19;;;;;;;11.15;2.85;;;21.60;99.90;;;;;;5051392;28;20142;-78
2022/06/12 09:40:37;;;;;;;10.93;2.67;;;21.40;99.90;;;;;;5051420;28;20045;-79
2022/06/12 09:43:18;;;;;;;7.88;2.45;;;21.60;99.90;;;;;;5041532;28;20067;-78
2022/06/12 09:45:58;;;;;;;10.45;2.95;;;21.50;99.90;;;;;;5048318;28;20045;-78
2022/06/12 09:49:14;;;;;;;11.55;2.38;;;21.70;99.90;;;;;;5050841;28;20148;-77
2022/06/12 09:52:18;;;;;;;6.45;2.00;;;21.50;99.90;;;;;;4958345;28;20092;-79
2022/06/12 09:54:52;;;;;;;8.55;2.55;;;21.70;99.90;;;;;;4971262;28;20118;-78
2022/06/12 09:57:29;;;;;;;7.35;2.17;;;21.90;99.90;;;;;;5036901;28;20047;-78
2022/06/12 10:00:10;;;;;;;6.45;2.20;;;21.90;99.90;;;;;;5045524;28;20112;-77
2022/06/12 10:03:20;;;;;;;9.38;2.30;;;21.90;99.90;;;;;;5045637;28;20040;-80
2022/06/12 10:06:00;;;;;;;6.68;2.10;;;21.70;99.90;;;;;;5041501;28;20045;-78
2022/06/12 10:08:52;;;;;;;6.82;2.17;;;21.40;99.90;;;;;;5047519;28;20029;-77
2022/06/12 10:11:36;;;;;;;10.30;2.00;;;21.30;99.90;;;;;;5046969;28;20036;-78
2022/06/12 10:14:10;;;;;;;6.00;1.88;;;21.70;99.90;;;;;;5040518;28;20376;-77
2022/06/12 10:17:01;;;;;;;7.68;1.80;;;22.10;99.90;;;;;;5040405;28;20052;-78
2022/06/12 10:19:44;;;;;;;9.75;2.20;;;22.40;99.90;;;;;;5045704;28;20434;-79
2022/06/12 10:22:26;;;;;;;6.43;1.80;;;22.60;99.90;;;;;;5048684;28;20041;-78
2022/06/12 10:24:52;;;;;;;7.70;1.80;;;22.70;99.90;;;;;;5023264;28;20045;-79
2022/06/12 10:27:20;;;;;;;4.75;1.90;;;22.80;99.90;;;;;;5047506;28;20411;-78
2022/06/12 10:29:48;;;;;;;6.45;2.00;;;22.80;99.90;;;;;;5045433;28;20043;-78
2022/06/12 10:32:19;;;;;;;6.05;1.70;;;22.90;99.90;;;;;;5056904;28;20128;-76
2022/06/12 10:34:45;;;;;;;5.40;1.60;;;23.00;99.90;;;;;;5045697;28;20106;-78
2022/06/12 10:37:24;;;;;;;7.38;1.85;;;23.10;99.90;;;;;;5045045;28;20033;-78
2022/06/12 10:40:00;;;;;;;4.70;1.42;;;23.20;99.90;;;;;;5044761;28;20045;-78
2022/06/12 10:43:02;;;;;;;4.60;1.80;;;23.40;99.90;;;;;;5064022;28;20036;-78
2022/06/12 10:45:33;;;;;;;3.90;1.50;;;23.50;99.90;;;;;;5044184;28;20091;-79
2022/06/12 10:48:02;;;;;;;6.25;1.90;;;23.20;99.80;;;;;;5043439;28;20060;-78
2022/06/12 10:50:36;;;;;;;6.43;1.70;;;22.80;99.80;;;;;;5048052;28;20045;-76
2022/06/12 10:53:09;;;;;;;5.60;1.75;;;22.40;99.90;;;;;;5047321;28;20041;-78
2022/06/12 10:56:07;;;;;;;4.97;1.70;;;22.10;99.90;;;;;;5044646;28;20033;-78
2022/06/12 10:59:09;;;;;;;5.28;1.80;;;22.40;99.90;;;;;;5057531;28;20045;-77
2022/06/12 11:02:03;;;;;;;7.28;1.80;;;22.70;99.70;;;;;;5042353;28;20146;-77
2022/06/12 11:04:44;;;;;;;6.35;2.08;;;23.10;99.90;;;;;;5039977;28;20128;-77
2022/06/12 11:07:32;;;;;;;7.85;2.00;;;23.20;99.90;;;;;;5045645;28;20048;-79
2022/06/12 11:10:16;;;;;;;5.13;1.80;;;23.00;99.10;;;;;;5042901;28;20409;-80
2022/06/12 11:13:08;;;;;;;7.15;2.15;;;22.20;98.50;;;;;;5047315;28;20049;-79
2022/06/12 11:15:55;;;;;;;5.40;1.90;;;21.70;99.10;;;;;;4997112;28;20041;-78
2022/06/12 11:18:29;;;;;;;6.85;1.95;;;21.70;99.90;;;;;;5037189;28;20538;-78
2022/06/12 11:21:14;;;;;;;7.78;2.10;;;21.70;99.90;;;;;;5048159;28;20045;-77
2022/06/12 11:24:01;;;;;;;10.60;2.30;;;21.90;99.90;;;;;;5031514;28;20045;-78
2022/06/12 11:26:52;;;;;;;7.47;1.90;;;21.90;99.50;;;;;;5021817;28;20045;-75
2022/06/12 11:29:47;;;;;;;5.90;2.08;;;22.00;99.10;;;;;;5036806;28;20453;-78
2022/06/12 11:32:35;;;;;;;5.72;1.70;;;21.60;98.40;;;;;;5046018;28;20120;-79
2022/06/12 11:35:28;;;;;;;4.55;1.63;;;21.60;99.30;;;;;;5037588;28;20033;-80
2022/06/12 11:38:34;;;;;;;9.43;2.60;;;21.50;99.40;;;;;;5042170;28;20442;-78
2022/06/12 11:41:24;;;;;;;8.90;2.03;;;21.50;99.90;;;;;;5059542;28;20036;-78
2022/06/12 11:44:12;;;;;;;7.93;2.05;;;21.50;99.90;;;;;;5044707;28;20071;-78
2022/06/12 11:46:56;;;;;;;8.02;1.90;;;21.70;98.80;;;;;;5034032;28;20172;-79
2022/06/12 11:49:43;;;;;;;7.55;1.77;;;21.90;98.90;;;;;;5041143;28;20519;-78
2022/06/12 11:52:21;;;;;;;5.15;1.88;;;22.30;99.30;;;;;;5033433;28;20921;-79
2022/06/12 11:55:05;;;;;;;6.22;2.05;;;22.70;99.10;;;;;;5046122;28;20128;-79
2022/06/12 11:57:52;;;;;;;;;;;22.80;97.70;;;;;;5040128;28;20037;-78
2022/06/12 12:00:26;;;;;;;5.10;1.75;;;22.70;96.50;;;;;;5044005;28;19928;-79
2022/06/12 12:03:34;;;;;;;5.05;1.48;;;22.80;97.60;;;;;;5041439;28;20033;-79
2022/06/12 12:06:34;;;;;;;8.38;2.10;;;22.80;96.70;;;;;;5017857;28;20431;-77
2022/06/12 12:09:12;;;;;;;5.07;1.75;;;23.20;97.50;;;;;;5056027;28;20305;-76
2022/06/12 12:11:46;;;;;;;10.07;1.95;;;23.60;96.20;;;;;;5041962;28;20052;-78
2022/06/12 12:14:19;;;;;;;6.72;2.10;;;23.80;97.30;;;;;;5026867;28;20040;-80
2022/06/12 12:16:51;;;;;;;5.95;1.90;;;23.60;95.60;;;;;;5045540;28;20399;-79
2022/06/12 12:19:38;;;;;;;6.63;2.10;;;23.80;96.60;;;;;;5043683;28;20032;-78
2022/06/12 12:22:09;;;;;;;7.68;2.00;;;23.50;96.20;;;;;;5047063;28;20068;-79
2022/06/12 12:24:47;;;;;;;6.72;2.08;;;23.40;97.00;;;;;;5035743;28;20036;-78
2022/06/12 12:27:27;;;;;;;7.88;2.20;;;23.60;97.50;;;;;;5028827;28;20053;-78
2022/06/12 12:29:55;;;;;;;6.90;1.90;;;23.90;97.10;;;;;;5041103;28;20048;-79
2022/06/12 12:32:21;;;;;;;6.18;2.00;;;24.10;96.30;;;;;;5045199;28;20032;-78
2022/06/12 12:34:54;;;;;;;5.95;1.67;;;24.00;95.90;;;;;;5029206;28;20116;-78
2022/06/12 12:43:02;;;;;;;6.10;1.90;;;24.30;95.10;;;;;;5040900;28;20045;-78
2022/06/12 12:45:32;;;;;;;8.75;2.38;;;24.40;94.70;;;;;;5040170;28;20083;-77
2022/06/12 12:48:09;;;;;;;8.90;2.00;;;24.30;94.90;;;;;;5042484;28;20036;-76
2022/06/12 12:50:54;;;;;;;4.50;1.48;;;24.40;94.00;;;;;;5039441;28;20122;-77
2022/06/12 12:53:32;;;;;;;6.15;1.80;;;23.90;92.40;;;;;;5043364;28;20047;-77
2022/06/12 12:56:01;;;;;;;5.38;1.83;;;23.50;92.70;;;;;;5031193;28;20041;-76
2022/06/12 12:58:28;;;;;;;5.80;1.95;;;22.90;93.90;;;;;;5030130;28;20072;-77
2022/06/12 13:01:07;;;;;;;6.93;1.73;;;23.00;94.50;;;;;;5032494;28;20064;-76
2022/06/12 13:03:39;;;;;;;4.97;1.80;;;23.20;95.50;;;;;;5044042;28;20049;-78
2022/06/12 13:06:22;;;;;;;5.07;2.08;;;23.60;94.40;;;;;;5044465;28;20048;-77
2022/06/12 13:09:06;;;;;;;5.82;1.95;;;23.80;94.50;;;;;;5044832;28;20123;-78
2022/06/12 13:12:03;;;;;;;5.18;1.60;;;23.60;93.90;;;;;;5041172;28;20503;-77
2022/06/12 13:14:32;;;;;;;7.30;1.73;;;23.80;93.30;;;;;;5036251;28;20041;-77
2022/06/12 13:17:07;;;;;;;5.78;1.73;;;24.10;94.60;;;;;;5035996;28;20037;-78
2022/06/12 13:19:58;;;;;;;5.53;1.83;;;23.70;93.70;;;;;;5032673;28;20045;-78
2022/06/12 13:22:42;;;;;;;6.55;2.15;;;23.20;94.10;;;;;;5034209;28;20047;-77
2022/06/12 13:25:26;;;;;;;8.35;2.30;;;22.30;94.90;;;;;;5044115;28;20805;-78
2022/06/12 13:27:55;;;;;;;7.80;2.08;;;22.40;95.50;;;;;;5056902;28;20055;-78
2022/06/12 13:30:24;;;;;;;7.63;2.10;;;23.00;95.70;;;;;;5023254;28;20037;-78
2022/06/12 13:32:50;;;;;;;7.97;2.28;;;22.80;95.10;;;;;;5029871;28;20045;-77
2022/06/12 13:35:29;;;;;;;8.00;2.47;;;22.70;94.40;;;;;;5033584;28;20041;-77
2022/06/12 13:38:06;;;;;;;7.20;1.80;;;23.20;95.30;;;;;;5022818;28;20036;-78
2022/06/12 13:40:37;;;;;;;5.28;2.10;;;23.60;95.20;;;;;;5040915;28;20029;-77
2022/06/12 13:43:20;;;;;;;5.70;2.10;;;23.20;95.40;;;;;;5023422;28;20033;-77
2022/06/12 13:45:57;;;;;;;6.78;2.10;;;22.90;94.50;;;;;;5036024;28;20041;-77
2022/06/12 13:48:27;;;;;;;7.65;2.08;;;22.80;94.90;;;;;;5040174;28;20024;-77